Hiawatha, West Virginia
Current Conditions -  °F | °C
As of 3:52 PM on Tuesday 21 Oct 2014 (Local Time) from KBLF Reporting Station
Overcast Overcast  
Wind Chill: 53°   Ceiling: 6500
Heat Index: 53°   Visibility: 10mi
Dew Point: 39°   Wind: 14mph
Humidity: 59%   Direction: 290°WNW
Pressure: 29.95"   Gusts: 20mph
Location:  37.44°N, 81.24°W
Report Text: KBLF 211952Z AUTO 29012G17KT 10SM SCT027 OVC065 12/04 A2995 RMK AO2 SLP129 T01170039
Loading
Personal Weather Stations






























Interactive Weather Map
Tropical Storm Tracking
New forecast layout! Learn more

10-Day Weather Forecast

Advertisements
Track Severe Weather on mobile